Time;durP1;ratioP1;P1;durP2;ratioP2;P2;SDS_P1;SDS_P2;PMS_P1;PMS_P2;Temp;Humidity;BMP_temperature;BMP_pressure;BME280_temperature;BME280_humidity;BME280_pressure;Samples;Min_cycle;Max_cycle;Signal;HPM_P1;HPM_P2
2021/11/17 02:28:02;;;;;;;42.58;25.73;;;6.60;99.90;;;;;;5046274;28;20539;-54
2021/11/17 02:30:48;;;;;;;40.28;22.83;;;6.40;99.90;;;;;;5046231;28;20041;-57
2021/11/17 02:33:41;;;;;;;40.72;24.65;;;6.50;99.90;;;;;;5043252;28;20019;-59
2021/11/17 02:36:24;;;;;;;48.70;26.42;;;6.60;99.90;;;;;;5045232;28;20034;-52
2021/11/17 02:39:00;;;;;;;42.38;24.38;;;6.60;99.90;;;;;;5045088;28;20167;-53
2021/11/17 02:41:28;;;;;;;41.53;23.08;;;6.50;99.90;;;;;;5043761;28;20742;-54
2021/11/17 02:44:07;;;;;;;43.83;24.30;;;6.50;99.90;;;;;;5051503;28;20423;-53
2021/11/17 02:46:48;;;;;;;39.25;23.75;;;6.50;99.90;;;;;;5043349;28;20044;-55
2021/11/17 02:49:35;;;;;;;43.13;25.13;;;6.40;99.90;;;;;;5044976;28;20490;-51
2021/11/17 02:52:10;;;;;;;41.15;24.02;;;6.40;99.90;;;;;;5045502;28;20024;-52
2021/11/17 02:54:36;;;;;;;;;;;6.40;99.90;;;;;;5045907;28;20049;-55
2021/11/17 02:57:09;;;;;;;44.45;24.42;;;6.30;99.90;;;;;;5043208;28;19945;-56
2021/11/17 02:59:50;;;;;;;38.67;22.85;;;6.30;99.90;;;;;;5043159;28;20025;-56
2021/11/17 03:02:39;;;;;;;43.53;24.55;;;6.40;99.90;;;;;;5047793;28;20037;-52
2021/11/17 03:05:24;;;;;;;44.38;25.02;;;6.40;99.90;;;;;;5044721;28;20113;-56
2021/11/17 03:07:56;;;;;;;;;;;6.40;99.90;;;;;;5046238;28;20064;-57
2021/11/17 03:10:37;;;;;;;43.35;23.83;;;6.40;99.90;;;;;;5041589;28;19962;-54
2021/11/17 03:13:15;;;;;;;47.15;25.92;;;6.50;99.90;;;;;;5043454;28;20028;-58
2021/11/17 03:16:11;;;;;;;42.65;26.08;;;6.50;99.90;;;;;;5042657;28;20105;-53
2021/11/17 03:19:04;;;;;;;40.55;23.45;;;6.40;99.90;;;;;;5043475;28;20029;-53
2021/11/17 03:21:39;;;;;;;42.10;25.65;;;6.40;99.90;;;;;;5046822;28;20086;-51
2021/11/17 03:24:25;;;;;;;;;;;6.50;99.90;;;;;;5042990;28;20539;-57
2021/11/17 03:27:12;;;;;;;50.65;26.48;;;6.50;99.90;;;;;;5041313;28;20370;-58
2021/11/17 03:29:45;;;;;;;46.50;25.02;;;6.30;99.90;;;;;;5044522;28;20105;-54
2021/11/17 03:32:16;;;;;;;38.42;23.58;;;6.30;99.90;;;;;;5042094;28;20009;-56
2021/11/17 03:35:13;;;;;;;46.95;25.13;;;6.40;99.90;;;;;;5044833;28;20101;-54
2021/11/17 03:37:54;;;;;;;43.95;23.75;;;6.40;99.90;;;;;;5039364;28;20392;-55
2021/11/17 03:40:48;;;;;;;40.28;23.15;;;6.40;99.90;;;;;;5040290;28;20120;-56
2021/11/17 03:43:32;;;;;;;39.25;23.58;;;6.40;99.90;;;;;;5041997;28;20021;-57
2021/11/17 03:46:16;;;;;;;48.72;24.50;;;6.50;99.90;;;;;;5041381;28;20507;-59
2021/11/17 03:48:58;;;;;;;37.70;22.07;;;6.50;99.90;;;;;;5046115;28;20119;-58
2021/11/17 03:51:45;;;;;;;44.95;23.80;;;6.40;99.90;;;;;;5044663;28;20128;-55
2021/11/17 03:54:20;;;;;;;39.20;23.98;;;6.30;99.90;;;;;;5042916;28;20485;-54
2021/11/17 03:56:55;;;;;;;39.25;23.42;;;6.40;99.90;;;;;;5044788;28;20103;-55
2021/11/17 03:59:39;;;;;;;36.85;22.63;;;6.30;99.90;;;;;;5041282;28;20029;-55
2021/11/17 04:02:16;;;;;;;39.75;23.08;;;6.40;99.90;;;;;;5042389;28;20083;-54
2021/11/17 04:05:01;;;;;;;39.03;22.73;;;6.30;99.90;;;;;;5042490;28;20032;-55
2021/11/17 04:07:45;;;;;;;44.38;23.65;;;6.30;99.90;;;;;;5043299;28;20029;-56
2021/11/17 04:10:13;;;;;;;40.25;22.67;;;6.30;99.90;;;;;;5040938;28;20027;-56
2021/11/17 04:12:55;;;;;;;45.63;23.38;;;6.30;99.90;;;;;;5044550;28;20029;-53
2021/11/17 04:15:46;;;;;;;39.88;22.30;;;6.40;99.90;;;;;;5043506;28;20079;-58
2021/11/17 04:18:18;;;;;;;40.35;22.70;;;6.40;99.90;;;;;;5044346;28;20044;-55
2021/11/17 04:20:43;;;;;;;40.03;24.63;;;6.50;99.90;;;;;;5044348;28;20035;-56
2021/11/17 04:23:40;;;;;;;42.78;24.02;;;6.40;99.90;;;;;;5040997;28;20112;-58
2021/11/17 04:26:32;;;;;;;41.80;23.15;;;6.30;99.90;;;;;;5041409;28;20021;-56
2021/11/17 04:29:15;;;;;;;40.55;23.05;;;6.30;99.90;;;;;;5047368;28;20492;-54
2021/11/17 04:31:53;;;;;;;39.65;21.75;;;6.40;99.90;;;;;;5041684;28;20108;-56
2021/11/17 04:34:39;;;;;;;38.58;23.30;;;6.20;99.90;;;;;;5044963;28;20021;-54
2021/11/17 04:37:40;;;;;;;39.60;22.02;;;6.30;99.90;;;;;;5041464;28;20041;-60
2021/11/17 04:41:00;;;;;;;40.45;23.35;;;6.10;99.90;;;;;;5046457;28;20053;-54
2021/11/17 04:43:32;;;;;;;46.38;23.92;;;6.10;99.90;;;;;;4961052;28;20086;-56
2021/11/17 04:46:23;;;;;;;42.00;22.58;;;6.20;99.90;;;;;;4962469;28;20027;-58
2021/11/17 04:49:00;;;;;;;38.47;23.38;;;6.30;99.90;;;;;;5020558;28;20037;-57
2021/11/17 04:51:56;;;;;;;40.70;23.20;;;6.20;99.90;;;;;;5043579;28;20108;-55
2021/11/17 04:54:50;;;;;;;38.58;21.50;;;6.20;99.90;;;;;;5043532;28;20021;-52
2021/11/17 04:57:26;;;;;;;36.90;21.35;;;6.30;99.90;;;;;;5038422;28;20028;-56
2021/11/17 05:00:25;;;;;;;36.08;21.83;;;6.30;99.90;;;;;;5042116;28;20048;-58
2021/11/17 05:03:07;;;;;;;33.20;19.75;;;6.30;99.90;;;;;;5044235;28;20028;-54
2021/11/17 05:05:44;;;;;;;34.53;20.55;;;6.30;99.90;;;;;;5043801;28;20034;-58
2021/11/17 05:08:24;;;;;;;35.45;20.80;;;6.40;99.90;;;;;;5047804;28;20033;-56
2021/11/17 05:11:14;;;;;;;38.90;22.13;;;6.20;99.90;;;;;;5039969;28;20059;-56
2021/11/17 05:13:54;;;;;;;29.77;18.10;;;6.00;99.90;;;;;;5040006;28;20045;-55
2021/11/17 05:16:42;;;;;;;32.40;17.80;;;6.00;99.90;;;;;;5050428;28;20490;-56
2021/11/17 05:19:22;;;;;;;31.20;17.35;;;6.20;99.90;;;;;;5038899;28;20028;-55
2021/11/17 05:22:17;;;;;;;29.70;17.88;;;6.10;99.90;;;;;;5044554;28;20108;-59
2021/11/17 05:24:48;;;;;;;31.90;17.92;;;6.00;99.90;;;;;;5034760;28;20037;-53
2021/11/17 05:27:44;;;;;;;26.40;16.67;;;6.20;99.90;;;;;;5043066;28;20044;-57
2021/11/17 05:30:28;;;;;;;26.15;15.88;;;6.20;99.90;;;;;;5042978;28;20017;-55
2021/11/17 05:33:00;;;;;;;25.48;15.75;;;6.20;99.90;;;;;;5046971;28;20056;-59
2021/11/17 05:35:46;;;;;;;24.77;16.02;;;6.10;99.90;;;;;;5042203;28;20098;-54
2021/11/17 05:38:26;;;;;;;26.00;15.65;;;6.20;99.90;;;;;;5027667;28;20029;-57
2021/11/17 05:41:19;;;;;;;21.63;14.52;;;6.20;99.90;;;;;;5040894;28;20033;-52
2021/11/17 05:44:00;;;;;;;21.45;14.07;;;6.20;99.90;;;;;;5049889;28;20029;-55
2021/11/17 05:46:50;;;;;;;26.00;15.07;;;6.10;99.90;;;;;;5042189;28;20091;-56
2021/11/17 05:50:00;;;;;;;21.58;13.73;;;6.30;99.90;;;;;;5043256;28;20052;-55
2021/11/17 05:52:38;;;;;;;21.10;14.52;;;6.30;99.90;;;;;;5041056;28;20047;-52
2021/11/17 05:55:16;;;;;;;22.08;14.40;;;6.20;99.90;;;;;;5044855;28;20032;-57
2021/11/17 05:58:03;;;;;;;23.17;14.48;;;6.30;99.90;;;;;;5052482;28;20055;-57
2021/11/17 06:00:55;;;;;;;24.73;14.68;;;6.30;99.90;;;;;;5054753;28;20025;-49
2021/11/17 06:03:27;;;;;;;21.17;14.18;;;6.30;99.90;;;;;;5055309;28;20033;-52
2021/11/17 06:05:53;;;;;;;25.10;14.68;;;6.20;99.90;;;;;;5055148;28;20115;-53
2021/11/17 06:08:18;;;;;;;22.27;14.05;;;6.20;99.90;;;;;;5054593;28;20453;-56
2021/11/17 06:10:53;;;;;;;19.27;14.15;;;6.20;99.90;;;;;;5055073;28;20094;-54
2021/11/17 06:13:19;;;;;;;19.67;15.20;;;6.10;99.90;;;;;;5055732;28;20033;-56
2021/11/17 06:15:47;;;;;;;21.65;14.77;;;6.10;99.90;;;;;;5055173;28;20040;-57
2021/11/17 06:18:18;;;;;;;20.10;13.88;;;6.10;99.90;;;;;;5072414;28;20098;-55
2021/11/17 06:20:46;;;;;;;20.88;14.55;;;5.90;99.90;;;;;;5073919;28;20103;-55
2021/11/17 06:23:18;;;;;;;21.75;14.10;;;6.00;99.90;;;;;;5053629;28;20116;-54
2021/11/17 06:25:44;;;;;;;20.27;13.23;;;6.00;99.90;;;;;;5055119;28;20037;-56
2021/11/17 06:28:10;;;;;;;18.35;13.20;;;5.90;99.90;;;;;;5055276;28;20507;-56
2021/11/17 06:30:39;;;;;;;25.33;14.77;;;5.90;99.90;;;;;;5053720;28;20079;-57
2021/11/17 06:33:09;;;;;;;22.10;15.32;;;5.70;99.90;;;;;;5055177;28;20033;-56
2021/11/17 06:35:36;;;;;;;22.75;14.57;;;5.80;99.90;;;;;;5055994;28;20516;-54
2021/11/17 06:38:05;;;;;;;23.38;15.68;;;5.60;99.90;;;;;;5040737;28;20424;-58
2021/11/17 06:40:31;;;;;;;23.75;15.10;;;5.60;99.90;;;;;;5035633;28;20038;-53
2021/11/17 06:42:58;;;;;;;21.33;13.93;;;5.60;99.90;;;;;;5035213;28;20435;-57
2021/11/17 06:45:36;;;;;;;22.27;15.70;;;5.80;99.90;;;;;;5038072;28;20103;-54
2021/11/17 06:48:02;;;;;;;23.55;14.32;;;5.80;99.90;;;;;;5055498;28;20036;-55
2021/11/17 06:50:28;;;;;;;20.02;13.40;;;5.80;99.90;;;;;;5054717;28;20033;-58
2021/11/17 06:52:54;;;;;;;20.10;13.75;;;5.70;99.90;;;;;;5055189;28;20549;-55
2021/11/17 06:55:20;;;;;;;24.48;14.73;;;5.70;99.90;;;;;;5054991;28;20040;-56
2021/11/17 06:57:47;;;;;;;23.30;13.55;;;5.80;99.90;;;;;;5056194;28;20029;-57
2021/11/17 07:00:18;;;;;;;18.70;12.52;;;5.80;99.90;;;;;;5053917;28;20544;-56
2021/11/17 07:02:43;;;;;;;19.92;12.07;;;5.70;99.90;;;;;;5054929;28;20472;-58
2021/11/17 07:05:09;;;;;;;16.95;12.48;;;5.80;99.90;;;;;;5055042;28;20047;-52
2021/11/17 07:07:36;;;;;;;18.00;12.70;;;5.80;99.90;;;;;;5054711;28;20039;-60
2021/11/17 07:10:03;;;;;;;19.23;12.10;;;5.80;99.90;;;;;;5054186;28;20041;-54
2021/11/17 07:12:28;;;;;;;20.90;13.63;;;5.80;99.90;;;;;;5054519;28;20508;-56
2021/11/17 07:14:54;;;;;;;18.98;12.85;;;5.70;99.90;;;;;;5054658;28;20033;-52
2021/11/17 07:17:19;;;;;;;19.85;13.07;;;5.80;99.90;;;;;;5065353;28;20044;-56
2021/11/17 07:19:45;;;;;;;18.25;12.13;;;5.90;99.90;;;;;;5073059;28;20044;-53
2021/11/17 07:22:11;;;;;;;16.63;12.85;;;5.90;99.90;;;;;;5062125;28;20096;-60
2021/11/17 07:24:38;;;;;;;18.02;11.60;;;5.90;99.90;;;;;;5054690;28;20041;-57
2021/11/17 07:27:04;;;;;;;17.42;12.65;;;5.90;99.90;;;;;;5053444;28;20044;-54
2021/11/17 07:29:30;;;;;;;18.20;11.95;;;5.90;99.90;;;;;;5044540;28;20021;-56
2021/11/17 07:31:56;;;;;;;20.38;12.65;;;5.80;99.90;;;;;;5052555;28;20032;-51
2021/11/17 07:34:22;;;;;;;21.67;14.18;;;5.80;99.90;;;;;;5045742;28;20032;-55
2021/11/17 07:36:48;;;;;;;21.17;12.65;;;5.80;99.90;;;;;;5045874;28;20388;-55
2021/11/17 07:39:15;;;;;;;24.10;12.15;;;5.70;99.90;;;;;;5053567;28;20025;-58
2021/11/17 07:41:46;;;;;;;24.35;12.52;;;5.60;99.90;;;;;;5053302;28;20017;-52
2021/11/17 07:44:16;;;;;;;17.75;11.43;;;5.70;99.90;;;;;;5054190;28;20029;-57
2021/11/17 07:46:44;;;;;;;16.00;11.07;;;5.80;99.90;;;;;;5055111;28;20025;-56
2021/11/17 07:49:11;;;;;;;18.52;12.32;;;5.80;99.90;;;;;;5073506;28;20025;-57
2021/11/17 07:51:36;;;;;;;17.23;10.70;;;5.70;99.90;;;;;;5070710;28;20021;-52
2021/11/17 07:54:02;;;;;;;16.23;11.02;;;5.80;99.90;;;;;;5042285;28;20055;-55
2021/11/17 07:56:27;;;;;;;19.13;12.05;;;6.00;99.90;;;;;;5049422;28;20029;-55
2021/11/17 07:58:53;;;;;;;14.85;10.90;;;6.20;99.90;;;;;;5044167;28;20097;-53
2021/11/17 08:01:19;;;;;;;15.75;10.52;;;6.30;99.90;;;;;;5042532;28;20022;-49
2021/11/17 08:03:48;;;;;;;13.73;10.75;;;6.20;99.90;;;;;;5040092;28;20404;-53
2021/11/17 08:06:17;;;;;;;14.07;10.10;;;6.30;99.90;;;;;;5041751;28;20485;-57
2021/11/17 08:08:43;;;;;;;12.98;10.60;;;6.30;99.90;;;;;;5041609;28;20033;-54
2021/11/17 08:11:12;;;;;;;12.65;9.25;;;6.30;99.90;;;;;;5041440;28;20079;-50
2021/11/17 08:13:38;;;;;;;12.77;9.48;;;6.40;99.90;;;;;;5050058;28;20045;-56
2021/11/17 08:16:06;;;;;;;15.93;10.68;;;6.50;99.90;;;;;;5041700;28;20516;-52
2021/11/17 08:18:33;;;;;;;10.82;8.43;;;6.50;99.90;;;;;;5052272;28;20512;-51
2021/11/17 08:20:59;;;;;;;10.68;8.07;;;6.30;99.90;;;;;;5052873;28;20062;-56
2021/11/17 08:23:25;;;;;;;16.20;9.13;;;6.00;99.90;;;;;;5053417;28;20040;-55
2021/11/17 08:25:51;;;;;;;10.45;8.05;;;6.00;99.90;;;;;;5054836;28;20119;-57
2021/11/17 08:28:17;;;;;;;12.05;7.93;;;5.90;99.90;;;;;;5045447;28;20033;-60
2021/11/17 08:30:43;;;;;;;10.02;7.75;;;5.90;99.90;;;;;;5032933;28;20033;-58
2021/11/17 08:33:10;;;;;;;8.82;7.00;;;5.90;99.90;;;;;;5032614;28;20444;-56
2021/11/17 08:35:36;;;;;;;10.38;7.75;;;5.90;99.90;;;;;;5033059;28;20032;-55
2021/11/17 08:38:05;;;;;;;10.38;7.93;;;5.90;99.90;;;;;;5045225;28;20033;-54
2021/11/17 08:40:34;;;;;;;10.45;7.82;;;5.80;99.90;;;;;;5033147;28;20025;-57
2021/11/17 08:43:00;;;;;;;9.65;7.30;;;5.80;99.90;;;;;;5033125;28;20034;-55
2021/11/17 08:45:27;;;;;;;7.50;6.70;;;5.90;99.90;;;;;;5032974;28;20093;-55
2021/11/17 08:47:53;;;;;;;8.60;6.70;;;5.80;99.90;;;;;;5034670;28;20693;-55
2021/11/17 08:50:23;;;;;;;9.75;6.90;;;5.80;99.90;;;;;;5040249;28;20105;-53
2021/11/17 08:52:50;;;;;;;9.20;6.82;;;5.60;99.90;;;;;;5045318;28;20079;-60
2021/11/17 08:55:16;;;;;;;9.32;6.53;;;5.60;99.90;;;;;;5052223;28;20025;-52
2021/11/17 08:57:47;;;;;;;7.47;6.18;;;5.70;99.90;;;;;;5043760;28;20038;-52
2021/11/17 09:00:16;;;;;;;8.10;6.40;;;5.70;99.90;;;;;;5047972;28;20087;-56
2021/11/17 09:02:43;;;;;;;10.02;6.72;;;5.80;99.90;;;;;;5039181;28;20029;-54
2021/11/17 09:05:17;;;;;;;8.57;7.13;;;5.80;99.90;;;;;;5043288;28;20554;-55
2021/11/17 09:07:46;;;;;;;10.00;6.72;;;5.80;99.90;;;;;;5033229;28;20056;-55
2021/11/17 09:10:24;;;;;;;8.88;6.93;;;5.80;99.90;;;;;;5032842;28;20079;-52
2021/11/17 09:12:51;;;;;;;7.13;5.93;;;5.80;99.90;;;;;;5037508;28;20040;-57
2021/11/17 09:15:21;;;;;;;7.70;6.05;;;5.90;99.90;;;;;;5042539;28;20039;-55
2021/11/17 09:17:47;;;;;;;9.05;6.47;;;5.90;99.90;;;;;;5049690;28;20074;-58
2021/11/17 09:20:15;;;;;;;10.52;7.15;;;5.80;99.90;;;;;;5044090;28;20061;-56
2021/11/17 09:22:41;;;;;;;8.25;6.05;;;6.00;99.90;;;;;;5053521;28;20060;-57
2021/11/17 09:25:09;;;;;;;8.23;6.28;;;6.10;99.90;;;;;;5072206;28;20583;-55
2021/11/17 09:27:38;;;;;;;8.18;6.07;;;6.00;99.90;;;;;;5057283;28;20041;-56
2021/11/17 09:30:06;;;;;;;7.25;6.15;;;6.00;99.90;;;;;;5056537;28;20032;-55
2021/11/17 09:32:34;;;;;;;7.55;6.00;;;6.00;99.90;;;;;;5056681;28;20484;-55
2021/11/17 09:35:09;;;;;;;9.93;7.38;;;6.00;99.90;;;;;;5057092;28;20120;-51
2021/11/17 09:37:37;;;;;;;9.90;7.32;;;5.90;99.90;;;;;;5055304;28;20504;-57
2021/11/17 09:40:06;;;;;;;13.35;8.57;;;5.90;99.90;;;;;;5057064;28;20515;-55
2021/11/17 09:42:32;;;;;;;10.90;6.88;;;5.90;99.90;;;;;;5056262;28;20033;-53
2021/11/17 09:44:59;;;;;;;11.05;7.20;;;6.00;99.90;;;;;;5056437;28;20029;-51
2021/11/17 09:47:26;;;;;;;9.50;7.38;;;6.00;99.90;;;;;;5057593;28;20102;-58
2021/11/17 09:50:07;;;;;;;8.88;6.82;;;6.00;99.90;;;;;;5076449;28;20033;-52
2021/11/17 09:52:40;;;;;;;10.32;7.75;;;5.90;99.90;;;;;;5076886;28;20020;-57
2021/11/17 09:55:12;;;;;;;9.20;7.05;;;5.80;99.90;;;;;;5075168;28;20368;-55
2021/11/17 09:57:42;;;;;;;13.10;7.95;;;5.80;99.90;;;;;;5075815;28;20029;-56
2021/11/17 10:00:17;;;;;;;11.43;7.65;;;5.80;99.90;;;;;;5076146;28;20068;-56
2021/11/17 10:02:51;;;;;;;;;;;5.90;99.90;;;;;;5076226;28;20036;-54
2021/11/17 10:05:41;;;;;;;11.63;7.83;;;5.90;99.90;;;;;;5076349;28;19953;-59
2021/11/17 10:13:38;;;;;;;9.80;7.65;;;6.00;99.90;;;;;;5075769;28;20108;-57
2021/11/17 10:16:05;;;;;;;11.00;7.82;;;6.00;99.90;;;;;;5075091;28;20113;-50
2021/11/17 10:18:38;;;;;;;11.90;7.95;;;6.00;99.90;;;;;;5054716;28;20037;-53
2021/11/17 10:21:09;;;;;;;10.30;7.75;;;5.90;99.90;;;;;;5055380;28;20021;-59
2021/11/17 10:24:00;;;;;;;10.15;7.55;;;6.00;99.90;;;;;;5056509;28;20040;-56
2021/11/17 10:26:26;;;;;;;12.07;7.68;;;6.00;99.90;;;;;;5053233;28;20049;-53
2021/11/17 10:29:15;;;;;;;9.30;7.10;;;6.00;99.90;;;;;;5055484;28;20059;-57
2021/11/17 10:32:19;;;;;;;10.38;7.25;;;5.90;99.90;;;;;;5052551;28;20049;-56
2021/11/17 10:34:59;;;;;;;10.80;7.03;;;6.00;99.90;;;;;;5047281;28;20069;-57
2021/11/17 10:37:27;;;;;;;10.25;6.90;;;6.00;99.90;;;;;;5055165;28;20041;-54
2021/11/17 10:39:53;;;;;;;9.70;7.82;;;6.00;99.90;;;;;;5054814;28;20060;-53
2021/11/17 10:42:19;;;;;;;10.02;8.10;;;6.10;99.90;;;;;;5055247;28;20106;-55
2021/11/17 10:44:55;;;;;;;10.63;7.95;;;6.10;99.90;;;;;;5055818;28;20025;-55
2021/11/17 10:47:28;;;;;;;10.02;8.00;;;6.10;99.90;;;;;;5056072;28;20040;-54
2021/11/17 10:50:03;;;;;;;10.90;8.13;;;6.10;99.90;;;;;;5075725;28;20090;-58
2021/11/17 10:52:34;;;;;;;13.45;8.70;;;6.10;99.90;;;;;;5075574;28;20116;-57
2021/11/17 10:55:03;;;;;;;12.30;8.50;;;6.00;99.90;;;;;;5075420;28;20043;-56
2021/11/17 10:57:34;;;;;;;10.82;7.82;;;6.00;99.90;;;;;;5075094;28;20030;-57
2021/11/17 11:00:00;;;;;;;11.55;8.75;;;6.00;99.90;;;;;;5074725;28;20098;-51
2021/11/17 11:02:29;;;;;;;13.70;9.55;;;6.10;99.90;;;;;;5075132;28;20115;-56
2021/11/17 11:05:03;;;;;;;12.77;8.02;;;6.20;99.90;;;;;;5074835;28;20439;-57
2021/11/17 11:07:36;;;;;;;12.10;9.02;;;6.20;99.90;;;;;;5075053;28;20028;-58
2021/11/17 11:10:15;;;;;;;11.15;9.23;;;6.20;99.90;;;;;;5074504;28;20037;-56
2021/11/17 11:12:43;;;;;;;11.18;8.63;;;6.20;99.90;;;;;;5074602;28;20028;-56
2021/11/17 11:15:28;;;;;;;14.55;10.25;;;6.20;99.90;;;;;;5075756;28;20085;-61
2021/11/17 11:18:06;;;;;;;14.05;9.63;;;6.30;99.90;;;;;;5058396;28;20040;-56
2021/11/17 11:20:44;;;;;;;14.88;9.27;;;6.20;99.90;;;;;;5055130;28;20091;-55
2021/11/17 11:23:15;;;;;;;11.85;9.00;;;6.20;99.90;;;;;;5034916;28;20087;-59
2021/11/17 11:25:59;;;;;;;12.85;9.65;;;6.40;99.90;;;;;;5035264;28;20025;-59
2021/11/17 11:28:34;;;;;;;13.27;9.60;;;6.30;99.90;;;;;;5034788;28;20029;-60
2021/11/17 11:31:15;;;;;;;16.48;10.73;;;6.30;99.90;;;;;;5033628;28;20065;-56
2021/11/17 11:33:50;;;;;;;13.95;10.43;;;6.30;99.90;;;;;;5034733;28;20504;-50
2021/11/17 11:36:16;;;;;;;12.90;9.98;;;6.40;99.90;;;;;;5034247;28;20036;-55
2021/11/17 11:38:46;;;;;;;15.18;10.05;;;6.50;99.90;;;;;;5034163;28;20385;-62
2021/11/17 11:41:36;;;;;;;14.45;11.38;;;6.60;99.90;;;;;;5033263;28;20033;-56
2021/11/17 11:44:23;;;;;;;13.90;10.32;;;6.60;99.90;;;;;;5033513;28;20404;-54
2021/11/17 11:46:57;;;;;;;14.35;9.93;;;6.50;99.90;;;;;;5033735;28;20029;-55
2021/11/17 11:49:41;;;;;;;17.50;10.23;;;6.50;99.90;;;;;;5067628;28;20044;-55
2021/11/17 11:52:19;;;;;;;12.20;8.60;;;6.60;99.90;;;;;;5074070;28;20107;-52
2021/11/17 11:54:51;;;;;;;12.52;9.27;;;6.70;99.90;;;;;;5072922;28;20036;-56
2021/11/17 11:57:50;;;;;;;11.75;8.35;;;6.80;99.90;;;;;;5074225;28;20637;-58
2021/11/17 12:00:18;;;;;;;12.60;8.60;;;6.70;99.90;;;;;;5073440;28;20043;-57
2021/11/17 12:02:47;;;;;;;14.63;9.00;;;6.80;99.90;;;;;;5073197;28;20020;-58
2021/11/17 12:05:32;;;;;;;13.30;9.20;;;6.70;99.90;;;;;;5073335;28;20124;-56
2021/11/17 12:08:12;;;;;;;10.20;7.78;;;6.80;99.90;;;;;;5072076;28;20028;-55
2021/11/17 12:10:46;;;;;;;12.15;8.43;;;6.80;99.90;;;;;;5073431;28;20032;-58
2021/11/17 12:13:19;;;;;;;10.05;7.53;;;6.70;99.90;;;;;;5073075;28;20031;-53
2021/11/17 12:16:01;;;;;;;10.88;8.10;;;6.70;99.90;;;;;;5073247;28;20055;-56
2021/11/17 12:18:28;;;;;;;8.95;7.13;;;6.80;99.90;;;;;;5031919;28;20033;-52
2021/11/17 12:20:59;;;;;;;10.18;7.80;;;6.90;99.90;;;;;;5034921;28;20396;-57
2021/11/17 12:23:38;;;;;;;9.50;7.45;;;6.90;99.90;;;;;;5052520;28;20036;-58
2021/11/17 12:26:17;;;;;;;11.73;8.57;;;7.00;99.90;;;;;;5053565;28;20087;-56
2021/11/17 12:28:48;;;;;;;12.02;7.65;;;7.00;99.90;;;;;;5052863;28;20037;-57
2021/11/17 12:31:24;;;;;;;10.13;7.18;;;7.10;99.90;;;;;;5052380;28;20033;-51
2021/11/17 12:34:08;;;;;;;10.93;7.93;;;7.10;99.90;;;;;;5052243;28;20029;-53
2021/11/17 12:36:56;;;;;;;10.57;7.38;;;7.10;99.90;;;;;;5054391;28;20041;-57
2021/11/17 12:39:35;;;;;;;8.40;7.05;;;7.10;99.90;;;;;;5053680;28;20503;-57
2021/11/17 12:42:05;;;;;;;12.10;7.63;;;7.20;99.90;;;;;;5052219;28;20461;-55
2021/11/17 12:44:41;;;;;;;12.93;8.43;;;7.30;99.90;;;;;;5053707;28;20504;-55
2021/11/17 12:47:09;;;;;;;10.77;6.90;;;7.40;99.90;;;;;;5053547;28;20725;-57
2021/11/17 12:49:53;;;;;;;11.13;7.13;;;7.40;99.90;;;;;;5071003;28;20131;-58
2021/11/17 12:52:22;;;;;;;9.60;7.18;;;7.60;99.90;;;;;;5073498;28;20056;-53
2021/11/17 12:55:14;;;;;;;9.13;6.88;;;7.60;99.90;;;;;;5073315;28;20455;-54
2021/11/17 12:57:42;;;;;;;7.50;5.68;;;7.80;99.90;;;;;;5060819;28;20040;-55
2021/11/17 13:00:13;;;;;;;9.13;6.60;;;7.80;99.90;;;;;;5072710;28;20051;-58
2021/11/17 13:02:47;;;;;;;7.43;5.93;;;7.80;99.90;;;;;;5072270;28;20040;-51
2021/11/17 13:05:18;;;;;;;8.85;6.63;;;7.60;99.90;;;;;;5072512;28;20488;-54
2021/11/17 13:07:58;;;;;;;8.60;6.15;;;7.70;99.90;;;;;;5074069;28;20029;-56
2021/11/17 13:10:49;;;;;;;8.70;6.10;;;7.60;99.90;;;;;;5073101;28;20032;-58
2021/11/17 13:13:27;;;;;;;8.30;5.93;;;7.70;99.90;;;;;;5071613;28;20035;-53
2021/11/17 13:16:19;;;;;;;8.13;5.82;;;7.60;99.90;;;;;;5072252;28;20031;-53
2021/11/17 13:18:44;;;;;;;9.35;5.95;;;7.50;99.90;;;;;;5031542;28;20049;-57
2021/11/17 13:21:23;;;;;;;7.43;5.68;;;7.60;99.90;;;;;;5037007;28;20025;-58
2021/11/17 13:24:25;;;;;;;10.50;5.97;;;7.50;99.90;;;;;;5052369;28;20089;-58
2021/11/17 13:27:07;;;;;;;8.98;5.95;;;7.50;99.90;;;;;;5053127;28;20039;-57
2021/11/17 13:29:57;;;;;;;7.45;5.30;;;7.60;99.90;;;;;;5051734;28;20477;-54
2021/11/17 13:32:25;;;;;;;8.20;5.78;;;7.70;99.90;;;;;;5052326;28;20535;-60
2021/11/17 13:34:54;;;;;;;8.02;5.00;;;7.70;99.90;;;;;;5052412;28;20055;-56
2021/11/17 13:37:34;;;;;;;7.70;5.75;;;7.80;99.90;;;;;;5052506;28;20078;-56
2021/11/17 13:40:09;;;;;;;7.55;4.97;;;7.90;99.90;;;;;;5052529;28;20021;-56
2021/11/17 13:42:36;;;;;;;8.80;5.10;;;8.30;99.90;;;;;;5053239;28;20051;-58
2021/11/17 13:45:06;;;;;;;6.35;4.70;;;8.40;99.90;;;;;;5052391;28;20527;-54
2021/11/17 13:47:32;;;;;;;7.22;4.57;;;8.40;99.90;;;;;;5054395;28;20100;-56
2021/11/17 13:49:59;;;;;;;7.25;5.35;;;8.60;99.90;;;;;;5071611;28;20039;-56
2021/11/17 13:52:28;;;;;;;6.78;4.82;;;9.10;99.30;;;;;;5072750;28;20028;-59
2021/11/17 13:54:54;;;;;;;7.10;5.10;;;9.10;99.00;;;;;;5072674;28;20037;-56
2021/11/17 13:57:22;;;;;;;7.57;5.07;;;9.00;98.90;;;;;;5072457;28;20499;-56
2021/11/17 13:59:48;;;;;;;7.70;5.05;;;8.90;99.30;;;;;;5070290;28;20036;-57
2021/11/17 14:02:14;;;;;;;6.60;4.95;;;8.60;99.80;;;;;;5071085;28;20029;-56
2021/11/17 14:04:40;;;;;;;8.57;5.13;;;8.40;99.90;;;;;;5072367;28;20025;-57
2021/11/17 14:07:06;;;;;;;5.60;4.70;;;8.10;99.90;;;;;;5072412;28;20029;-56
2021/11/17 14:09:32;;;;;;;9.05;5.53;;;8.10;99.90;;;;;;5073756;28;20052;-54
2021/11/17 14:11:59;;;;;;;7.90;4.80;;;8.00;99.90;;;;;;5076203;28;20479;-56
2021/11/17 14:14:25;;;;;;;6.82;4.85;;;8.00;99.90;;;;;;5075574;28;20028;-53
2021/11/17 14:16:51;;;;;;;6.35;4.85;;;8.00;99.90;;;;;;5067707;28;20115;-54
2021/11/17 14:19:17;;;;;;;6.90;4.80;;;8.20;99.90;;;;;;5055199;28;20040;-54
2021/11/17 14:21:43;;;;;;;7.22;4.82;;;8.30;99.90;;;;;;5055106;28;20051;-57
2021/11/17 14:24:10;;;;;;;8.18;5.22;;;8.10;99.90;;;;;;5055291;28;20388;-59
2021/11/17 14:26:40;;;;;;;9.07;4.57;;;8.10;99.90;;;;;;5055899;28;20029;-58
2021/11/17 14:29:17;;;;;;;5.68;4.45;;;7.90;99.90;;;;;;5054829;28;20086;-56
2021/11/17 14:31:50;;;;;;;7.30;4.53;;;7.80;99.90;;;;;;5055080;28;20044;-57
2021/11/17 14:34:17;;;;;;;7.80;4.60;;;7.80;99.90;;;;;;5054124;28;20456;-58
2021/11/17 14:36:49;;;;;;;11.30;4.32;;;7.70;99.90;;;;;;5055628;28;20033;-59
2021/11/17 14:39:17;;;;;;;6.38;4.45;;;7.70;99.90;;;;;;5054677;28;20044;-57
2021/11/17 14:41:44;;;;;;;6.57;5.05;;;7.70;99.90;;;;;;5054864;28;20037;-59
2021/11/17 14:44:10;;;;;;;6.30;4.40;;;7.70;99.90;;;;;;5055288;28;20028;-54
2021/11/17 14:46:36;;;;;;;9.63;5.18;;;7.80;99.90;;;;;;5054866;28;20393;-55
2021/11/17 14:49:02;;;;;;;7.97;4.85;;;7.70;99.90;;;;;;5068672;28;20042;-58
2021/11/17 14:51:28;;;;;;;7.22;4.63;;;7.60;99.90;;;;;;5073755;28;20043;-57
2021/11/17 14:53:54;;;;;;;6.57;4.70;;;7.60;99.90;;;;;;5075480;28;20130;-55
2021/11/17 14:56:21;;;;;;;7.22;5.20;;;7.60;99.90;;;;;;5074535;28;20115;-55
2021/11/17 14:58:47;;;;;;;5.60;4.50;;;7.50;99.90;;;;;;5075451;28;20070;-58
2021/11/17 15:01:25;;;;;;;10.32;5.03;;;7.50;99.90;;;;;;5073734;28;20041;-55
2021/11/17 15:03:53;;;;;;;6.18;4.72;;;7.60;99.90;;;;;;5074533;28;20110;-53
2021/11/17 15:06:20;;;;;;;6.85;4.90;;;7.50;99.90;;;;;;5073486;28;20039;-52
2021/11/17 15:08:46;;;;;;;7.50;4.35;;;7.50;99.90;;;;;;5071730;28;20112;-55
2021/11/17 15:11:14;;;;;;;5.82;4.70;;;7.50;99.90;;;;;;5073182;28;20567;-53
2021/11/17 15:13:40;;;;;;;7.15;4.72;;;7.60;99.90;;;;;;5073243;28;20028;-55
2021/11/17 15:16:10;;;;;;;6.85;4.90;;;7.60;99.90;;;;;;5072073;28;20039;-52
2021/11/17 15:18:39;;;;;;;6.70;5.32;;;7.60;99.90;;;;;;5053353;28;20522;-55
2021/11/17 15:21:06;;;;;;;7.30;4.70;;;7.60;99.90;;;;;;5052060;28;20041;-57
2021/11/17 15:23:32;;;;;;;5.78;4.43;;;7.70;99.90;;;;;;5052830;28;20397;-54
2021/11/17 15:26:01;;;;;;;7.15;5.15;;;7.60;99.90;;;;;;5068534;28;20043;-54
2021/11/17 15:28:33;;;;;;;6.75;5.15;;;7.50;99.90;;;;;;5052927;28;20021;-53
2021/11/17 15:31:07;;;;;;;7.68;5.50;;;7.50;99.90;;;;;;5052764;28;20105;-55
2021/11/17 15:33:34;;;;;;;8.13;5.18;;;7.50;99.90;;;;;;5053600;28;20021;-57
2021/11/17 15:36:02;;;;;;;8.43;5.55;;;7.60;99.90;;;;;;5053157;28;20056;-54
2021/11/17 15:38:27;;;;;;;7.88;5.72;;;7.50;99.90;;;;;;5052779;28;20029;-57
2021/11/17 15:40:56;;;;;;;7.25;5.05;;;7.50;99.90;;;;;;5067906;28;20044;-58
2021/11/17 15:43:23;;;;;;;7.65;5.45;;;7.50;99.90;;;;;;5052475;28;20086;-55
2021/11/17 15:45:51;;;;;;;8.23;5.47;;;7.50;99.90;;;;;;5052646;28;20028;-57
2021/11/17 15:48:17;;;;;;;7.10;5.60;;;7.50;99.90;;;;;;5060715;28;20484;-57
2021/11/17 15:50:48;;;;;;;7.32;5.65;;;7.40;99.90;;;;;;5072055;28;20060;-53
2021/11/17 15:53:13;;;;;;;8.75;6.40;;;7.50;99.90;;;;;;5072565;28;20119;-57
2021/11/17 15:55:40;;;;;;;8.65;6.30;;;7.50;99.90;;;;;;5071467;28;20123;-54